createdAt,value
2018-03-22T00:01:02.204Z,-3.20
2018-03-22T00:03:30.679Z,-3.30
2018-03-22T00:05:59.124Z,-3.40
2018-03-22T00:08:26.859Z,-3.40
2018-03-22T00:10:54.501Z,-3.30
2018-03-22T00:13:22.958Z,-3.50
2018-03-22T00:15:51.408Z,-3.50
2018-03-22T00:18:20.096Z,-3.50
2018-03-22T00:20:47.797Z,-3.50
2018-03-22T00:23:15.488Z,-3.60
2018-03-22T00:25:43.162Z,-3.60
2018-03-22T00:28:10.972Z,-3.60
2018-03-22T00:30:38.641Z,-3.60
2018-03-22T00:33:06.329Z,-3.50
2018-03-22T00:35:34.056Z,-3.50
2018-03-22T00:38:02.485Z,-3.60
2018-03-22T00:40:31.264Z,-3.70
2018-03-22T00:42:58.921Z,-3.70
2018-03-22T00:45:27.628Z,-3.80
2018-03-22T00:47:56.103Z,-3.90
2018-03-22T00:50:23.789Z,-3.80
2018-03-22T00:52:51.506Z,-3.80
2018-03-22T00:55:19.552Z,-3.80
2018-03-22T00:57:48.007Z,-3.80
2018-03-22T01:00:15.716Z,-3.80
2018-03-22T01:02:43.463Z,-3.80
2018-03-22T01:05:11.130Z,-3.90
2018-03-22T01:07:38.782Z,-3.90
2018-03-22T01:10:07.665Z,-3.90
2018-03-22T01:12:36.094Z,-3.90
2018-03-22T01:15:03.834Z,-3.90
2018-03-22T01:17:32.527Z,-3.90
2018-03-22T01:20:00.180Z,-4.00
2018-03-22T01:22:28.140Z,-4.00
2018-03-22T01:24:55.828Z,-3.90
2018-03-22T01:27:23.554Z,-3.90
2018-03-22T01:29:52.065Z,-4.00
2018-03-22T01:32:19.825Z,-4.00
2018-03-22T01:34:49.234Z,-4.10
2018-03-22T01:37:17.010Z,-4.10
2018-03-22T01:39:44.672Z,-4.10
2018-03-22T01:42:12.390Z,-4.10
2018-03-22T01:44:40.048Z,-4.20
2018-03-22T01:47:07.685Z,-4.20
2018-03-22T01:49:35.398Z,-4.20
2018-03-22T01:52:03.124Z,-4.20
2018-03-22T01:54:30.893Z,-4.30
2018-03-22T01:56:58.564Z,-4.30
2018-03-22T01:59:26.273Z,-4.30
2018-03-22T02:01:53.960Z,-4.30
2018-03-22T02:04:21.717Z,-4.10
2018-03-22T02:06:49.421Z,-4.10
2018-03-22T02:09:17.093Z,-4.20
2018-03-22T02:11:44.787Z,-4.20
2018-03-22T02:14:12.476Z,-4.20
2018-03-22T02:16:40.217Z,-4.30
2018-03-22T02:19:08.684Z,-4.40
2018-03-22T02:21:36.391Z,-4.40
2018-03-22T02:24:04.032Z,-4.40
2018-03-22T02:26:31.716Z,-4.50
2018-03-22T02:28:59.372Z,-4.50
2018-03-22T02:31:27.061Z,-4.50
2018-03-22T02:33:54.739Z,-4.50
2018-03-22T02:36:23.197Z,-4.60
2018-03-22T02:38:50.856Z,-4.60
2018-03-22T02:41:18.544Z,-4.60
2018-03-22T02:43:46.272Z,-4.60
2018-03-22T02:46:13.905Z,-4.60
2018-03-22T02:48:41.565Z,-4.60
2018-03-22T02:51:09.277Z,-4.60
2018-03-22T02:53:36.912Z,-4.70
2018-03-22T02:56:04.588Z,-4.70
2018-03-22T02:58:32.323Z,-4.70
2018-03-22T03:01:00.042Z,-4.80
2018-03-22T03:03:28.502Z,-4.80
2018-03-22T03:05:56.180Z,-4.90
2018-03-22T03:08:24.591Z,-4.90
2018-03-22T03:10:52.264Z,-4.90
2018-03-22T03:13:19.971Z,-4.90
2018-03-22T03:15:47.612Z,-4.90
2018-03-22T03:18:15.283Z,-4.90
2018-03-22T03:20:42.949Z,-4.80
2018-03-22T03:23:10.619Z,-4.80
2018-03-22T03:25:39.039Z,-4.90
2018-03-22T03:28:06.709Z,-4.90
2018-03-22T03:30:34.593Z,-4.90
2018-03-22T03:33:02.272Z,-4.90
2018-03-22T03:35:29.966Z,-5.00
2018-03-22T03:37:57.716Z,-5.00
2018-03-22T03:40:25.415Z,-4.90
2018-03-22T03:42:53.100Z,-4.90
2018-03-22T03:45:20.735Z,-4.90
2018-03-22T03:47:48.432Z,-4.90
2018-03-22T03:50:16.131Z,-5.00
2018-03-22T03:52:43.863Z,-4.90
2018-03-22T03:55:12.352Z,-4.90
2018-03-22T03:57:40.804Z,-4.90
2018-03-22T04:00:08.458Z,-4.90
2018-03-22T04:02:36.244Z,-5.00
2018-03-22T04:05:04.747Z,-5.00
2018-03-22T04:07:33.245Z,-5.00
2018-03-22T04:10:00.928Z,-5.00
2018-03-22T04:12:28.633Z,-5.00
2018-03-22T04:14:57.081Z,-4.80
2018-03-22T04:17:24.787Z,-4.90
2018-03-22T04:19:52.497Z,-4.80
2018-03-22T04:22:20.138Z,-4.90
2018-03-22T04:24:47.960Z,-4.90
2018-03-22T04:27:16.424Z,-4.90
2018-03-22T04:29:44.141Z,-5.00
2018-03-22T04:32:11.825Z,-5.00
2018-03-22T04:34:39.558Z,-5.00
2018-03-22T04:37:07.221Z,-5.00
2018-03-22T04:39:34.914Z,-5.00
2018-03-22T04:42:02.692Z,-5.00
2018-03-22T04:44:30.346Z,-5.00
2018-03-22T04:46:58.039Z,-5.00
2018-03-22T04:49:25.752Z,-4.90
2018-03-22T04:51:53.428Z,-4.90
2018-03-22T04:54:21.161Z,-5.00
2018-03-22T04:56:48.874Z,-5.00
2018-03-22T04:59:17.329Z,-5.00
2018-03-22T05:01:45.060Z,-5.00
2018-03-22T05:04:12.769Z,-4.90
2018-03-22T05:06:41.555Z,-4.90
2018-03-22T05:09:09.296Z,-4.90
2018-03-22T05:11:37.046Z,-4.90
2018-03-22T05:14:04.744Z,-4.90
2018-03-22T05:16:33.316Z,-4.90
2018-03-22T05:19:01.002Z,-4.90
2018-03-22T05:21:28.665Z,-4.90
2018-03-22T05:23:56.345Z,-4.90
2018-03-22T05:26:24.042Z,-4.80
2018-03-22T05:28:51.750Z,-4.80
2018-03-22T05:31:20.227Z,-4.70
2018-03-22T05:33:48.677Z,-4.60
2018-03-22T05:36:16.359Z,-4.60
2018-03-22T05:38:44.087Z,-4.60
2018-03-22T05:41:11.785Z,-4.60
2018-03-22T05:43:40.174Z,-4.50
2018-03-22T05:46:09.924Z,-4.50
2018-03-22T05:48:37.613Z,-4.50
2018-03-22T05:51:05.339Z,-4.40
2018-03-22T05:53:33.943Z,-4.40
2018-03-22T05:56:01.665Z,-4.40
2018-03-22T05:58:29.449Z,-4.30
2018-03-22T06:00:57.222Z,-4.20
2018-03-22T06:03:24.950Z,-4.20
2018-03-22T06:05:52.621Z,-4.10
2018-03-22T06:08:20.313Z,-4.10
2018-03-22T06:10:48.012Z,-4.00
2018-03-22T06:13:15.700Z,-3.90
2018-03-22T06:15:43.359Z,-3.80
2018-03-22T06:18:11.017Z,-3.70
2018-03-22T06:20:38.904Z,-3.60
2018-03-22T06:23:06.608Z,-3.40
2018-03-22T06:25:35.060Z,-3.00
2018-03-22T06:28:02.723Z,-3.00
2018-03-22T06:30:30.425Z,-2.70
2018-03-22T06:32:58.142Z,-2.30
2018-03-22T06:35:25.823Z,-2.10
2018-03-22T06:37:53.517Z,-1.80
2018-03-22T06:40:21.196Z,-1.60
2018-03-22T06:42:48.845Z,-1.30
2018-03-22T06:45:16.575Z,-1.20
2018-03-22T06:47:45.028Z,-0.80
2018-03-22T06:50:13.475Z,-0.90
2018-03-22T06:52:41.195Z,-0.80
2018-03-22T06:55:09.660Z,-0.40
2018-03-22T06:57:37.366Z,-0.40
2018-03-22T07:00:05.122Z,-0.30
2018-03-22T07:02:32.886Z,-0.30
2018-03-22T07:05:00.532Z,-0.10
2018-03-22T07:07:28.976Z,0.20
2018-03-22T07:09:56.652Z,0.20
2018-03-22T07:12:25.108Z,0.50
2018-03-22T07:14:52.824Z,0.50
2018-03-22T07:17:20.525Z,0.70
2018-03-22T07:19:48.246Z,0.80
2018-03-22T07:22:15.961Z,0.80
2018-03-22T07:24:43.692Z,0.90
2018-03-22T07:27:11.356Z,0.90
2018-03-22T07:29:39.059Z,0.80
2018-03-22T07:32:06.715Z,0.90
2018-03-22T07:34:34.376Z,1.00
2018-03-22T07:37:02.924Z,1.20
2018-03-22T07:39:30.599Z,1.10
2018-03-22T07:41:58.261Z,1.30
2018-03-22T07:44:31.757Z,1.40
2018-03-22T07:46:59.538Z,1.50
2018-03-22T07:49:27.207Z,1.50
2018-03-22T07:51:55.677Z,1.50
2018-03-22T07:54:24.851Z,1.80
2018-03-22T07:56:52.489Z,1.80
2018-03-22T07:59:20.936Z,2.10
2018-03-22T08:01:48.616Z,2.10
2018-03-22T08:04:16.308Z,2.20
2018-03-22T08:06:44.092Z,2.20
2018-03-22T08:09:11.800Z,2.20
2018-03-22T08:11:39.470Z,2.30
2018-03-22T08:14:07.256Z,2.40
2018-03-22T08:16:34.964Z,2.70
2018-03-22T08:19:02.629Z,3.00
2018-03-22T08:21:30.317Z,3.00
2018-03-22T08:23:58.015Z,2.90
2018-03-22T08:26:25.684Z,2.80
2018-03-22T08:28:53.421Z,2.90
2018-03-22T08:31:21.134Z,2.80
2018-03-22T08:33:48.812Z,2.70
2018-03-22T08:36:16.527Z,2.70
2018-03-22T08:38:44.212Z,2.80
2018-03-22T08:41:11.988Z,2.90
2018-03-22T08:43:40.420Z,3.10
2018-03-22T08:46:08.153Z,3.00
2018-03-22T08:48:36.581Z,2.90
2018-03-22T08:51:05.118Z,2.80
2018-03-22T08:53:32.919Z,2.80
2018-03-22T08:56:00.599Z,2.80
2018-03-22T08:58:28.308Z,2.70
2018-03-22T09:00:56.032Z,2.80
2018-03-22T09:03:23.752Z,3.00
2018-03-22T09:05:51.516Z,3.00
2018-03-22T09:08:19.251Z,3.20
2018-03-22T09:10:47.526Z,3.00
2018-03-22T09:13:15.258Z,3.00
2018-03-22T09:15:42.955Z,3.00
2018-03-22T09:18:10.644Z,3.10
2018-03-22T09:20:38.320Z,3.00
2018-03-22T09:23:06.888Z,2.90
2018-03-22T09:25:35.345Z,2.80
2018-03-22T09:28:03.029Z,2.80
2018-03-22T09:30:31.499Z,2.70
2018-03-22T09:32:59.368Z,2.70
2018-03-22T09:35:27.077Z,2.50
2018-03-22T09:37:54.776Z,2.50
2018-03-22T09:40:22.524Z,2.60
2018-03-22T09:42:51.247Z,2.60
2018-03-22T09:45:19.008Z,2.60
2018-03-22T09:47:47.415Z,2.90
2018-03-22T09:50:15.166Z,2.90
2018-03-22T09:52:43.659Z,2.90
2018-03-22T09:55:11.351Z,2.90
2018-03-22T09:57:39.061Z,2.90
2018-03-22T10:00:07.524Z,3.10
2018-03-22T10:02:35.212Z,3.00
2018-03-22T10:05:02.969Z,3.30
2018-03-22T10:07:30.641Z,3.20
2018-03-22T10:09:58.291Z,3.30
2018-03-22T10:12:25.964Z,3.20
2018-03-22T10:14:53.632Z,3.20
2018-03-22T10:17:21.342Z,3.00
2018-03-22T10:19:49.025Z,3.20
2018-03-22T10:22:17.476Z,3.80
2018-03-22T10:24:45.107Z,3.80
2018-03-22T10:27:12.804Z,4.00
2018-03-22T10:29:40.507Z,4.20
2018-03-22T10:32:08.239Z,4.30
2018-03-22T10:34:35.923Z,4.50
2018-03-22T10:37:03.631Z,4.70
2018-03-22T10:39:31.316Z,4.70
2018-03-22T10:41:59.768Z,4.50
2018-03-22T10:44:27.469Z,4.50
2018-03-22T10:46:55.950Z,4.20
2018-03-22T10:49:24.441Z,4.10
2018-03-22T10:51:52.143Z,4.10
2018-03-22T10:54:19.852Z,4.10
2018-03-22T10:56:48.287Z,4.10
2018-03-22T10:59:15.968Z,4.10
2018-03-22T11:01:49.409Z,4.20
2018-03-22T11:04:17.168Z,4.20
2018-03-22T11:06:44.840Z,4.20
2018-03-22T11:09:12.619Z,4.20
2018-03-22T11:11:40.312Z,4.10
2018-03-22T11:14:07.988Z,4.20
2018-03-22T11:16:38.007Z,4.50
2018-03-22T11:19:05.708Z,4.40
2018-03-22T11:21:33.399Z,4.30
2018-03-22T11:24:01.152Z,4.20
2018-03-22T11:26:28.843Z,4.30
2018-03-22T11:28:57.284Z,4.10
2018-03-22T11:31:25.042Z,4.10
2018-03-22T11:33:52.727Z,4.00
2018-03-22T11:36:20.391Z,4.00
2018-03-22T11:38:48.104Z,3.80
2018-03-22T11:41:15.798Z,3.80
2018-03-22T11:43:43.510Z,3.90
2018-03-22T11:46:11.235Z,4.00
2018-03-22T11:48:38.976Z,4.10
2018-03-22T11:51:06.659Z,4.30
2018-03-22T11:53:34.475Z,4.30
2018-03-22T11:56:02.172Z,4.20
2018-03-22T11:58:33.148Z,4.40
2018-03-22T12:01:02.855Z,4.60
2018-03-22T12:03:30.570Z,4.60
2018-03-22T12:05:58.237Z,4.60
2018-03-22T12:08:26.024Z,4.60
2018-03-22T12:10:53.784Z,4.50
2018-03-22T12:13:21.407Z,4.30
2018-03-22T12:15:49.085Z,4.20
2018-03-22T12:18:16.832Z,4.20
2018-03-22T12:20:45.349Z,4.30
2018-03-22T12:23:13.085Z,4.30
2018-03-22T12:25:40.769Z,4.50
2018-03-22T12:28:09.253Z,4.40
2018-03-22T12:30:37.786Z,4.60
2018-03-22T12:33:05.473Z,4.60
2018-03-22T12:35:33.152Z,4.70
2018-03-22T12:38:00.904Z,4.70
2018-03-22T12:40:28.605Z,4.70
2018-03-22T12:42:56.271Z,4.80
2018-03-22T12:45:23.968Z,4.80
2018-03-22T12:47:51.657Z,4.80
2018-03-22T12:50:20.047Z,4.90
2018-03-22T12:52:48.477Z,4.80
2018-03-22T12:55:16.151Z,4.80
2018-03-22T12:57:43.849Z,4.70
2018-03-22T13:00:11.588Z,4.70
2018-03-22T13:02:39.321Z,4.60
2018-03-22T13:05:07.023Z,4.50
2018-03-22T13:07:34.720Z,4.50
2018-03-22T13:10:02.429Z,4.50
2018-03-22T13:12:30.107Z,4.50
2018-03-22T13:14:58.587Z,4.50
2018-03-22T13:17:27.030Z,4.50
2018-03-22T13:19:54.732Z,4.60
2018-03-22T13:22:23.280Z,4.70
2018-03-22T13:24:50.951Z,4.70
2018-03-22T13:27:18.625Z,4.80
2018-03-22T13:29:47.100Z,4.90
2018-03-22T13:32:14.785Z,4.90
2018-03-22T13:34:42.466Z,5.00
2018-03-22T13:37:10.180Z,4.90
2018-03-22T13:39:37.870Z,4.90
2018-03-22T13:42:05.559Z,5.10
2018-03-22T13:44:33.307Z,5.20
2018-03-22T13:47:00.979Z,5.20
2018-03-22T13:49:28.660Z,5.10
2018-03-22T13:51:56.361Z,5.10
2018-03-22T13:54:24.824Z,5.10
2018-03-22T13:56:52.450Z,5.10
2018-03-22T13:59:20.175Z,5.20
2018-03-22T14:01:47.896Z,5.20
2018-03-22T14:04:15.538Z,5.20
2018-03-22T14:06:43.208Z,5.30
2018-03-22T14:09:10.909Z,5.10
2018-03-22T14:11:38.589Z,5.10
2018-03-22T14:14:06.297Z,5.10
2018-03-22T14:16:33.998Z,5.10
2018-03-22T14:19:01.627Z,5.00
2018-03-22T14:21:29.309Z,5.00
2018-03-22T14:23:57.757Z,4.90
2018-03-22T14:26:25.430Z,4.90
2018-03-22T14:28:53.163Z,4.90
2018-03-22T14:31:20.865Z,4.90
2018-03-22T14:33:49.256Z,5.00
2018-03-22T14:36:17.698Z,5.00
2018-03-22T14:38:45.448Z,5.00
2018-03-22T14:41:13.065Z,5.10
2018-03-22T14:43:40.739Z,5.00
2018-03-22T14:46:08.402Z,5.00
2018-03-22T14:48:36.056Z,4.90
2018-03-22T14:51:03.787Z,5.00
2018-03-22T14:53:32.272Z,5.00
2018-03-22T14:56:00.690Z,5.00
2018-03-22T14:58:28.364Z,5.00
2018-03-22T15:00:56.032Z,5.10
2018-03-22T15:03:23.684Z,5.00
2018-03-22T15:05:51.380Z,5.10
2018-03-22T15:08:19.840Z,5.00
2018-03-22T15:10:47.487Z,4.90
2018-03-22T15:13:15.163Z,4.90
2018-03-22T15:15:42.824Z,4.90
2018-03-22T15:18:10.475Z,4.90
2018-03-22T15:20:38.140Z,4.90
2018-03-22T15:23:05.816Z,4.80
2018-03-22T15:25:34.228Z,4.70
2018-03-22T15:28:01.894Z,4.70
2018-03-22T15:30:29.640Z,4.60
2018-03-22T15:32:57.272Z,4.50
2018-03-22T15:35:24.949Z,4.50
2018-03-22T15:37:53.412Z,4.40
2018-03-22T15:40:21.113Z,4.40
2018-03-22T15:42:48.804Z,4.40
2018-03-22T15:45:16.495Z,4.30
2018-03-22T15:47:44.223Z,4.30
2018-03-22T15:50:11.870Z,4.30
2018-03-22T15:52:40.386Z,4.30
2018-03-22T15:55:08.050Z,4.20
2018-03-22T15:57:36.552Z,4.20
2018-03-22T16:00:05.069Z,4.10
2018-03-22T16:02:32.814Z,4.10
2018-03-22T16:05:00.461Z,4.10
2018-03-22T16:07:28.992Z,3.90
2018-03-22T16:09:56.673Z,3.90
2018-03-22T16:12:24.366Z,3.90
2018-03-22T16:14:52.811Z,3.70
2018-03-22T16:17:20.524Z,3.70
2018-03-22T16:19:48.210Z,3.70
2018-03-22T16:22:15.893Z,3.70
2018-03-22T16:24:43.547Z,3.70
2018-03-22T16:27:11.208Z,3.60
2018-03-22T16:29:38.909Z,3.50
2018-03-22T16:32:06.608Z,3.50
2018-03-22T16:34:34.276Z,3.50
2018-03-22T16:37:01.956Z,3.30
2018-03-22T16:39:29.603Z,3.10
2018-03-22T16:41:57.313Z,3.00
2018-03-22T16:44:25.791Z,2.80
2018-03-22T16:46:53.430Z,2.80
2018-03-22T16:49:21.116Z,2.70
2018-03-22T16:51:48.793Z,2.60
2018-03-22T16:54:17.224Z,2.40
2018-03-22T16:56:44.922Z,2.40
2018-03-22T16:59:12.660Z,2.40
2018-03-22T17:01:41.072Z,2.30
2018-03-22T17:04:08.739Z,2.30
2018-03-22T17:06:36.424Z,2.30
2018-03-22T17:09:04.162Z,2.20
2018-03-22T17:11:31.856Z,2.20
2018-03-22T17:14:00.322Z,2.00
2018-03-22T17:16:27.996Z,2.00
2018-03-22T17:18:55.669Z,1.80
2018-03-22T17:21:23.342Z,1.80
2018-03-22T17:23:51.745Z,1.50
2018-03-22T17:26:19.885Z,1.50
2018-03-22T17:28:48.507Z,1.40
2018-03-22T17:31:17.432Z,1.30
2018-03-22T17:33:47.182Z,1.20
2018-03-22T17:36:15.655Z,1.20
2018-03-22T17:38:45.354Z,1.10
2018-03-22T17:41:13.623Z,1.10
2018-03-22T17:43:42.173Z,1.10
2018-03-22T17:46:10.161Z,1.10
2018-03-22T17:48:39.183Z,1.00
2018-03-22T17:51:07.291Z,1.00
2018-03-22T17:53:36.394Z,0.90
2018-03-22T17:56:04.910Z,0.80
2018-03-22T17:58:33.835Z,0.80
2018-03-22T18:03:35.450Z,0.80
2018-03-22T18:06:04.173Z,0.80
2018-03-22T18:08:32.790Z,0.80
2018-03-22T18:11:01.270Z,0.70
2018-03-22T18:13:29.816Z,0.80
2018-03-22T18:15:59.180Z,0.80
2018-03-22T18:18:32.430Z,0.80
2018-03-22T18:21:00.649Z,0.90
2018-03-22T18:23:29.212Z,0.80
2018-03-22T18:25:57.772Z,0.80
2018-03-22T18:28:26.060Z,0.90
2018-03-22T18:30:54.350Z,0.90
2018-03-22T18:33:23.876Z,0.80
2018-03-22T18:35:52.616Z,0.80
2018-03-22T18:38:21.191Z,0.80
2018-03-22T18:40:49.799Z,0.70
2018-03-22T18:43:18.172Z,0.70
2018-03-22T18:45:54.462Z,0.60
2018-03-22T18:48:23.159Z,0.60
2018-03-22T18:50:51.812Z,0.60
2018-03-22T18:53:21.004Z,0.60
2018-03-22T18:55:49.358Z,0.60
2018-03-22T18:58:17.719Z,0.60
2018-03-22T19:00:45.868Z,0.60
2018-03-22T19:03:14.045Z,0.70
2018-03-22T19:05:43.285Z,0.60
2018-03-22T19:08:11.559Z,0.60
2018-03-22T19:10:40.062Z,0.50
2018-03-22T19:13:08.140Z,0.50
2018-03-22T19:15:38.056Z,0.50
2018-03-22T19:18:05.980Z,0.50
2018-03-22T19:20:34.545Z,0.50
2018-03-22T19:23:02.828Z,0.50
2018-03-22T19:25:31.174Z,0.50
2018-03-22T19:27:59.176Z,0.40
2018-03-22T19:30:27.270Z,0.50
2018-03-22T19:32:55.441Z,0.50
2018-03-22T19:35:24.148Z,0.50
2018-03-22T19:37:53.478Z,0.40
2018-03-22T19:40:22.491Z,0.40
2018-03-22T19:42:50.866Z,0.40
2018-03-22T19:45:19.325Z,0.50
2018-03-22T19:47:47.540Z,0.50
2018-03-22T19:50:16.236Z,0.50
2018-03-22T19:52:44.410Z,0.50
2018-03-22T19:55:12.766Z,0.50
2018-03-22T19:57:41.322Z,0.50
2018-03-22T20:00:10.354Z,0.50
2018-03-22T20:02:38.763Z,0.40
2018-03-22T20:05:07.420Z,0.40
2018-03-22T20:07:35.508Z,0.40
2018-03-22T20:10:05.259Z,0.40
2018-03-22T20:12:33.600Z,0.40
2018-03-22T20:15:02.776Z,0.50
2018-03-22T20:17:31.512Z,0.50
2018-03-22T20:19:59.224Z,0.50
2018-03-22T20:22:26.903Z,0.50
2018-03-22T20:24:55.349Z,0.50
2018-03-22T20:27:23.030Z,0.50
2018-03-22T20:29:50.729Z,0.50
2018-03-22T20:32:18.395Z,0.50
2018-03-22T20:34:46.316Z,0.50
2018-03-22T20:37:14.987Z,0.50
2018-03-22T20:39:42.665Z,0.50
2018-03-22T20:42:10.348Z,0.60
2018-03-22T20:44:38.805Z,0.70
2018-03-22T20:47:06.899Z,0.70
2018-03-22T20:49:34.630Z,0.70
2018-03-22T20:52:02.304Z,0.60
2018-03-22T20:54:30.740Z,0.60
2018-03-22T20:56:58.898Z,0.60
2018-03-22T20:59:27.160Z,0.60
2018-03-22T21:01:54.812Z,0.70
2018-03-22T21:04:22.520Z,0.70
2018-03-22T21:06:50.210Z,0.70
2018-03-22T21:09:17.982Z,0.60
2018-03-22T21:11:45.910Z,0.70
2018-03-22T21:14:13.784Z,0.70
2018-03-22T21:16:41.557Z,0.70
2018-03-22T21:19:09.370Z,0.70
2018-03-22T21:21:37.116Z,0.70
2018-03-22T21:24:04.851Z,0.70
2018-03-22T21:26:33.408Z,0.70
2018-03-22T21:29:01.144Z,0.70
2018-03-22T21:31:28.796Z,0.70
2018-03-22T21:33:56.556Z,0.70
2018-03-22T21:36:24.296Z,0.70
2018-03-22T21:38:52.719Z,0.60
2018-03-22T21:41:20.431Z,0.50
2018-03-22T21:44:00.624Z,0.50
2018-03-22T21:46:28.373Z,0.50
2018-03-22T21:48:56.175Z,0.50
2018-03-22T21:51:23.862Z,0.40
2018-03-22T21:53:51.705Z,0.40
2018-03-22T21:56:19.623Z,0.40
2018-03-22T21:58:47.499Z,0.40
2018-03-22T22:01:15.457Z,0.30
2018-03-22T22:03:44.073Z,0.20
2018-03-22T22:06:13.091Z,0.20
2018-03-22T22:08:40.800Z,0.20
2018-03-22T22:11:08.521Z,0.10
2018-03-22T22:13:36.962Z,0.10
2018-03-22T22:16:04.725Z,0.10
2018-03-22T22:18:32.491Z,0.10
2018-03-22T22:21:00.250Z,0.00
2018-03-22T22:23:28.047Z,0.00
2018-03-22T22:25:56.613Z,0.10
2018-03-22T22:28:24.358Z,0.10
2018-03-22T22:30:52.276Z,0.10
2018-03-22T22:33:19.985Z,0.20
2018-03-22T22:35:47.686Z,0.20
2018-03-22T22:38:16.137Z,0.20
2018-03-22T22:40:43.807Z,0.20
2018-03-22T22:43:11.460Z,0.20
2018-03-22T22:45:39.148Z,0.20
2018-03-22T22:48:07.609Z,0.10
2018-03-22T22:50:35.286Z,0.10
2018-03-22T22:53:03.800Z,0.20
2018-03-22T22:55:31.478Z,0.20
2018-03-22T22:57:59.144Z,0.20
2018-03-22T23:00:27.216Z,0.30
2018-03-22T23:02:55.180Z,0.30
2018-03-22T23:05:22.942Z,0.30
2018-03-22T23:07:50.875Z,0.30
2018-03-22T23:10:18.731Z,0.30
2018-03-22T23:12:47.259Z,0.30
2018-03-22T23:15:15.070Z,0.30
2018-03-22T23:17:43.648Z,0.40
2018-03-22T23:20:12.107Z,0.40
2018-03-22T23:22:40.653Z,0.50
2018-03-22T23:25:08.436Z,0.40
2018-03-22T23:27:36.111Z,0.40
2018-03-22T23:30:04.083Z,0.50
2018-03-22T23:32:31.923Z,0.50
2018-03-22T23:34:59.638Z,0.50
2018-03-22T23:37:27.459Z,0.40
2018-03-22T23:39:55.302Z,0.40
2018-03-22T23:42:23.879Z,0.50
2018-03-22T23:44:51.648Z,0.50
2018-03-22T23:47:19.523Z,0.60
2018-03-22T23:49:47.313Z,0.60
2018-03-22T23:52:15.803Z,0.50
2018-03-22T23:54:44.308Z,0.50
2018-03-22T23:57:11.976Z,0.50
2018-03-22T23:59:39.663Z,0.50
